Time;durP1;ratioP1;P1;durP2;ratioP2;P2;SDS_P1;SDS_P2;PMS_P1;PMS_P2;Temp;Humidity;BMP_temperature;BMP_pressure;BME280_temperature;BME280_humidity;BME280_pressure;Samples;Min_cycle;Max_cycle;Signal;HPM_P1;HPM_P2
2022/08/07 00:01:05;;;;;;;5.82;2.58;;;;;;;16.61;81.86;101966.06;5008142;28;20045;-70
2022/08/07 00:03:31;;;;;;;5.88;2.72;;;;;;;16.65;81.28;101964.19;5008780;28;20043;-70
2022/08/07 00:05:56;;;;;;;5.55;2.92;;;;;;;16.55;81.41;101960.16;4996087;28;20038;-70
2022/08/07 00:08:22;;;;;;;8.85;2.92;;;;;;;16.50;81.45;101956.97;5020169;28;20109;-70
2022/08/07 00:10:51;;;;;;;9.32;4.00;;;;;;;16.42;82.20;101960.66;5002653;28;20042;-71
2022/08/07 00:13:18;;;;;;;8.43;3.53;;;;;;;16.27;82.65;101965.06;5011629;28;20496;-70
2022/08/07 00:15:44;;;;;;;6.30;2.50;;;;;;;16.10;83.16;101952.72;5003743;28;20114;-70
2022/08/07 00:18:09;;;;;;;5.05;2.60;;;;;;;16.17;82.81;101958.28;5000243;28;20120;-70
2022/08/07 00:20:36;;;;;;;7.43;3.28;;;;;;;16.28;83.02;101958.47;5008021;28;20052;-70
2022/08/07 00:23:05;;;;;;;5.05;2.60;;;;;;;16.29;82.43;101951.91;5007175;28;20049;-70
2022/08/07 00:25:30;;;;;;;4.97;2.78;;;;;;;16.28;82.98;101950.31;4991920;28;20039;-70
2022/08/07 00:27:59;;;;;;;4.55;2.70;;;;;;;16.04;83.73;101940.59;4990599;28;20074;-70
2022/08/07 00:30:25;;;;;;;7.22;3.05;;;;;;;16.01;83.86;101945.94;4992019;28;20406;-71
2022/08/07 00:32:50;;;;;;;4.40;2.42;;;;;;;15.92;84.02;101943.44;5003107;28;20034;-70
2022/08/07 00:35:17;;;;;;;6.03;2.40;;;;;;;15.90;84.42;101944.94;5010094;28;20036;-70
2022/08/07 00:37:43;;;;;;;4.63;2.67;;;;;;;15.84;84.23;101944.44;4992975;28;20039;-70
2022/08/07 00:40:09;;;;;;;5.13;2.88;;;;;;;15.83;84.93;101944.81;4992637;28;20045;-70
2022/08/07 00:42:35;;;;;;;6.60;2.70;;;;;;;15.94;84.45;101941.16;5004239;28;20045;-70
2022/08/07 00:45:00;;;;;;;7.40;2.50;;;;;;;15.89;83.80;101940.66;5010053;28;20116;-70
2022/08/07 00:47:26;;;;;;;6.32;2.83;;;;;;;15.99;83.31;101945.50;5010065;28;20542;-71
2022/08/07 00:49:51;;;;;;;6.20;2.58;;;;;;;15.96;83.22;101944.31;5008851;28;20052;-70
2022/08/07 00:52:17;;;;;;;6.63;2.83;;;;;;;15.89;84.03;101941.44;5016369;28;20038;-70
2022/08/07 00:54:42;;;;;;;5.60;3.00;;;;;;;15.75;83.97;101943.09;4995605;28;20376;-70
2022/08/07 00:57:09;;;;;;;6.22;2.78;;;;;;;15.77;83.96;101941.59;5012129;28;20045;-71
2022/08/07 00:59:37;;;;;;;4.20;2.30;;;;;;;15.72;83.85;101933.72;4992422;28;20450;-71
2022/08/07 01:02:05;;;;;;;5.65;2.58;;;;;;;15.61;84.47;101930.00;5015677;28;20046;-70
2022/08/07 01:04:31;;;;;;;5.22;2.70;;;;;;;15.58;84.75;101943.53;4993061;28;20034;-71
2022/08/07 01:06:57;;;;;;;6.55;2.60;;;;;;;15.68;84.33;101934.81;5015084;28;20041;-70
2022/08/07 01:09:24;;;;;;;5.03;2.72;;;;;;;15.60;84.48;101930.38;5006240;28;20030;-70
2022/08/07 01:11:53;;;;;;;6.85;2.65;;;;;;;15.53;85.07;101939.16;5008554;28;20038;-71
2022/08/07 01:14:23;;;;;;;4.25;2.30;;;;;;;15.45;85.71;101929.28;5008251;28;20029;-70
2022/08/07 01:16:49;;;;;;;5.38;2.67;;;;;;;15.46;85.82;101939.00;5021138;28;20026;-70
2022/08/07 01:19:19;;;;;;;4.82;2.88;;;;;;;15.38;86.09;101945.41;5007314;28;20026;-70
2022/08/07 01:21:50;;;;;;;5.43;2.00;;;;;;;15.38;85.85;101935.34;5023047;28;20489;-70
2022/08/07 01:24:17;;;;;;;5.00;2.20;;;;;;;15.51;85.65;101933.28;5002212;28;20038;-70
2022/08/07 01:26:43;;;;;;;4.47;2.72;;;;;;;15.40;85.72;101932.25;5008893;28;20109;-70
2022/08/07 01:29:10;;;;;;;4.68;2.70;;;;;;;15.45;85.64;101936.66;4994570;28;20415;-70
2022/08/07 01:31:37;;;;;;;4.80;2.63;;;;;;;15.44;84.94;101933.16;5020838;28;20030;-70
2022/08/07 01:34:07;;;;;;;3.72;1.98;;;;;;;15.35;85.51;101936.03;5006734;28;20033;-70
2022/08/07 01:36:37;;;;;;;4.25;1.98;;;;;;;15.28;85.96;101926.94;5022437;28;20125;-70
2022/08/07 01:39:09;;;;;;;4.90;2.63;;;;;;;15.31;85.88;101921.59;5000344;28;20029;-70
2022/08/07 01:41:35;;;;;;;4.72;2.00;;;;;;;15.38;85.48;101929.09;5024831;28;20038;-70
2022/08/07 01:44:02;;;;;;;4.38;2.20;;;;;;;15.33;85.15;101927.44;5009251;28;20038;-70
2022/08/07 01:46:30;;;;;;;4.43;2.30;;;;;;;15.39;85.25;101927.94;5008049;28;20033;-71
2022/08/07 01:48:56;;;;;;;6.88;2.85;;;;;;;15.39;84.79;101920.59;5024262;28;20469;-70
2022/08/07 01:51:25;;;;;;;8.57;2.58;;;;;;;15.40;84.57;101915.97;4993572;28;20093;-70
2022/08/07 01:53:57;;;;;;;5.07;2.42;;;;;;;15.32;84.50;101920.47;5009743;28;20402;-70
2022/08/07 01:56:28;;;;;;;4.50;2.30;;;;;;;15.22;85.38;101917.50;5009769;28;20026;-70
2022/08/07 01:59:03;;;;;;;6.18;2.42;;;;;;;15.27;85.02;101922.66;5006868;28;20044;-70
2022/08/07 02:01:35;;;;;;;5.70;2.30;;;;;;;15.18;85.35;101920.16;5006967;28;20111;-70
2022/08/07 02:04:08;;;;;;;5.30;2.60;;;;;;;15.07;85.15;101921.03;5021047;28;20030;-70
2022/08/07 02:06:38;;;;;;;6.55;2.65;;;;;;;15.08;85.25;101919.91;5028705;28;20040;-70
2022/08/07 02:09:08;;;;;;;5.05;2.40;;;;;;;15.09;85.70;101916.06;5007019;28;20116;-71
2022/08/07 02:11:38;;;;;;;4.68;2.72;;;;;;;15.10;85.23;101918.41;5023905;28;20040;-70
2022/08/07 02:14:07;;;;;;;6.00;2.60;;;;;;;15.07;85.87;101918.34;5014944;28;20402;-70
2022/08/07 02:16:36;;;;;;;4.90;2.70;;;;;;;14.99;86.13;101908.47;5010313;28;20026;-70
2022/08/07 02:19:08;;;;;;;8.88;2.58;;;;;;;14.97;85.90;101908.03;5012283;28;20037;-70
2022/08/07 02:21:37;;;;;;;3.10;1.98;;;;;;;14.83;86.39;101907.69;4996831;28;20038;-69
2022/08/07 02:24:04;;;;;;;3.47;2.00;;;;;;;14.81;86.51;101915.38;5023317;28;20045;-69
2022/08/07 02:26:32;;;;;;;4.95;2.30;;;;;;;14.85;86.30;101910.84;5010128;28;20116;-70
2022/08/07 02:28:59;;;;;;;4.95;2.58;;;;;;;14.96;85.56;101906.47;5006952;28;20026;-70
2022/08/07 02:31:27;;;;;;;4.00;2.58;;;;;;;14.87;85.97;101912.06;5000105;28;20129;-69
2022/08/07 02:33:56;;;;;;;5.50;2.50;;;;;;;14.77;86.55;101909.88;5000992;28;20113;-69
2022/08/07 02:36:23;;;;;;;5.30;2.85;;;;;;;14.79;87.00;101906.84;4985737;28;20113;-69
2022/08/07 02:38:51;;;;;;;5.45;2.28;;;;;;;14.87;86.51;101900.41;5005005;28;20045;-69
2022/08/07 02:41:18;;;;;;;7.45;2.95;;;;;;;14.84;86.36;101907.34;5016928;28;20026;-69
2022/08/07 02:43:45;;;;;;;4.38;2.58;;;;;;;14.72;86.48;101907.44;5023102;28;20125;-68
2022/08/07 02:46:17;;;;;;;5.13;2.28;;;;;;;14.66;86.81;101914.28;5010551;28;20491;-69
2022/08/07 02:48:42;;;;;;;4.57;2.25;;;;;;;14.57;87.65;101905.53;5014819;28;20022;-69
2022/08/07 02:51:12;;;;;;;3.92;2.38;;;;;;;14.75;87.33;101905.97;5008768;28;20033;-69
2022/08/07 02:53:41;;;;;;;6.22;2.38;;;;;;;14.78;86.60;101907.97;5012120;28;20092;-69
2022/08/07 02:56:13;;;;;;;7.20;2.85;;;;;;;14.70;86.78;101903.50;5026447;28;20041;-69
2022/08/07 02:58:41;;;;;;;5.97;3.03;;;;;;;14.57;87.00;101899.34;4991859;28;20125;-69
2022/08/07 03:01:09;;;;;;;4.40;2.33;;;;;;;14.66;86.75;101895.31;4993428;28;20038;-69
2022/08/07 03:03:35;;;;;;;6.20;2.47;;;;;;;14.65;86.70;101901.09;5004172;28;20037;-69
2022/08/07 03:06:02;;;;;;;4.93;2.45;;;;;;;14.54;87.29;101898.09;5000121;28;20117;-70
2022/08/07 03:08:28;;;;;;;5.25;2.60;;;;;;;14.61;87.08;101898.28;5006485;28;20500;-68
2022/08/07 03:10:56;;;;;;;4.60;2.60;;;;;;;14.63;86.91;101893.31;4991797;28;20037;-68
2022/08/07 03:13:28;;;;;;;3.80;2.13;;;;;;;14.59;86.89;101900.56;4994178;28;20398;-69
2022/08/07 03:15:54;;;;;;;3.50;2.03;;;;;;;14.56;86.80;101898.53;5008880;28;20453;-69
2022/08/07 03:18:21;;;;;;;4.45;2.65;;;;;;;14.39;87.53;101898.88;4997535;28;20029;-69
2022/08/07 03:20:48;;;;;;;5.47;2.83;;;;;;;14.31;87.35;101900.63;4998768;28;20079;-69
2022/08/07 03:23:15;;;;;;;4.70;2.65;;;;;;;14.24;87.85;101899.66;5007047;28;20041;-68
2022/08/07 03:25:42;;;;;;;8.05;2.80;;;;;;;14.22;87.54;101893.78;5008311;28;20041;-69
2022/08/07 03:28:15;;;;;;;5.32;2.53;;;;;;;14.17;87.99;101897.53;5006427;28;20446;-69
2022/08/07 03:30:41;;;;;;;6.35;2.72;;;;;;;14.29;87.77;101894.78;5007532;28;20034;-69
2022/08/07 03:33:09;;;;;;;3.85;2.17;;;;;;;14.30;87.52;101890.91;5021296;28;20044;-68
2022/08/07 03:35:37;;;;;;;3.45;2.17;;;;;;;14.36;87.19;101894.94;5010659;28;20030;-68
2022/08/07 03:38:06;;;;;;;9.20;3.00;;;;;;;14.20;87.58;101899.56;5007058;28;20036;-69
2022/08/07 03:40:32;;;;;;;4.70;2.55;;;;;;;14.25;87.05;101885.75;5026767;28;20037;-68
2022/08/07 03:43:00;;;;;;;7.45;2.67;;;;;;;14.20;86.74;101894.13;5011375;28;20092;-69
2022/08/07 03:45:27;;;;;;;4.93;2.63;;;;;;;14.21;87.17;101893.00;4995602;28;20045;-68
2022/08/07 03:47:55;;;;;;;4.80;2.50;;;;;;;14.12;87.26;101897.00;4990935;28;20026;-69
2022/08/07 03:50:24;;;;;;;5.00;2.72;;;;;;;14.14;87.49;101898.25;5007840;28;20435;-69
2022/08/07 03:52:54;;;;;;;3.50;2.13;;;;;;;14.17;87.25;101907.56;4991578;28;20030;-68
2022/08/07 03:55:20;;;;;;;5.18;2.65;;;;;;;14.18;87.05;101899.13;5004813;28;20038;-68
2022/08/07 03:57:47;;;;;;;5.32;2.40;;;;;;;14.09;87.25;101900.41;4998942;28;20044;-69
2022/08/07 04:00:13;;;;;;;3.42;2.00;;;;;;;14.03;87.90;101901.81;4992093;28;20038;-69
2022/08/07 04:02:43;;;;;;;4.40;2.25;;;;;;;14.12;87.87;101907.84;5004514;28;20046;-68
2022/08/07 04:05:12;;;;;;;5.28;2.08;;;;;;;14.17;87.48;101905.66;5008188;28;20037;-68
2022/08/07 04:07:44;;;;;;;3.28;2.08;;;;;;;14.08;87.84;101907.75;4994461;28;20054;-69
2022/08/07 04:10:11;;;;;;;4.28;2.35;;;;;;;13.99;88.04;101907.13;5002272;28;20478;-68
2022/08/07 04:12:38;;;;;;;5.13;2.53;;;;;;;14.02;88.06;101911.03;5008809;28;20030;-69
2022/08/07 04:15:04;;;;;;;3.67;1.77;;;;;;;14.07;88.04;101914.28;5035870;28;20602;-69
2022/08/07 04:17:33;;;;;;;4.28;2.17;;;;;;;14.15;88.06;101913.34;5007583;28;20033;-68
2022/08/07 04:19:58;;;;;;;5.72;2.55;;;;;;;14.12;87.76;101908.63;5005945;28;20041;-69
2022/08/07 04:22:27;;;;;;;4.35;2.33;;;;;;;14.04;89.04;101915.00;5008977;28;20425;-69
2022/08/07 04:24:54;;;;;;;4.57;2.75;;;;;;;13.98;89.46;101921.78;5007567;28;20076;-68
2022/08/07 04:27:20;;;;;;;3.83;1.80;;;;;;;14.02;89.74;101919.16;5009792;28;20037;-68
2022/08/07 04:29:46;;;;;;;7.00;3.33;;;;;;;14.02;88.96;101921.88;5006734;28;20041;-69
2022/08/07 04:32:12;;;;;;;4.63;2.20;;;;;;;14.05;89.26;101921.22;5027717;28;20040;-70
2022/08/07 04:34:38;;;;;;;3.83;2.33;;;;;;;14.03;89.46;101918.06;5022265;28;20030;-69
2022/08/07 04:37:04;;;;;;;5.00;2.30;;;;;;;14.04;90.19;101919.63;5005701;28;20037;-68
2022/08/07 04:39:31;;;;;;;3.78;2.30;;;;;;;14.02;90.04;101928.09;5024315;28;20390;-69
2022/08/07 04:41:57;;;;;;;8.30;2.70;;;;;;;14.08;90.77;101931.34;5001984;28;20490;-69
2022/08/07 04:44:22;;;;;;;4.90;2.67;;;;;;;14.08;90.99;101924.00;5031200;28;20022;-68
2022/08/07 04:46:56;;;;;;;4.38;2.30;;;;;;;14.08;91.46;101929.41;5004825;28;20049;-69
2022/08/07 04:49:36;;;;;;;5.22;2.90;;;;;;;14.22;91.49;101931.72;5001745;28;20033;-68
2022/08/07 04:52:04;;;;;;;3.22;2.05;;;;;;;14.26;91.36;101927.97;5010247;28;20033;-68
2022/08/07 04:54:38;;;;;;;3.55;2.10;;;;;;;14.27;91.60;101935.00;5001162;28;20113;-69
2022/08/07 04:57:44;;;;;;;6.22;2.78;;;;;;;14.36;91.78;101943.72;4991422;28;20049;-69
2022/08/07 05:00:17;;;;;;;4.45;2.22;;;;;;;14.41;92.06;101940.00;4984480;28;20038;-69
2022/08/07 05:03:18;;;;;;;3.92;2.22;;;;;;;14.48;92.12;101942.88;5025519;28;20080;-68
2022/08/07 05:06:06;;;;;;;4.78;2.67;;;;;;;14.64;92.06;101940.97;5005941;28;20491;-68
2022/08/07 05:08:40;;;;;;;8.38;3.53;;;;;;;14.76;92.04;101945.50;4992197;28;20036;-68
2022/08/07 05:11:31;;;;;;;5.35;2.90;;;;;;;14.90;91.33;101941.22;5041167;28;20410;-69
2022/08/07 05:14:41;;;;;;;5.22;2.72;;;;;;;14.99;92.03;101949.94;5001961;28;20522;-69
2022/08/07 05:17:10;;;;;;;7.22;3.58;;;;;;;15.14;91.44;101942.91;5019933;28;20041;-69
2022/08/07 05:19:40;;;;;;;10.60;3.50;;;;;;;15.03;92.74;101948.09;5008514;28;20116;-68
2022/08/07 05:22:09;;;;;;;8.07;3.08;;;;;;;15.16;92.98;101951.47;5010419;28;20093;-69
2022/08/07 05:24:38;;;;;;;5.35;3.05;;;;;;;15.34;92.05;101949.97;5001613;28;20112;-68
2022/08/07 05:27:06;;;;;;;8.25;3.60;;;;;;;15.51;92.00;101951.50;4999930;28;20038;-68
2022/08/07 05:29:37;;;;;;;9.13;3.72;;;;;;;15.51;93.02;101963.16;4993052;28;20081;-69
2022/08/07 05:32:10;;;;;;;8.20;3.38;;;;;;;15.52;93.73;101955.81;5000889;28;20033;-69
2022/08/07 05:34:36;;;;;;;7.28;3.53;;;;;;;15.53;94.41;101966.31;5008523;28;20029;-68
2022/08/07 05:37:03;;;;;;;8.52;4.07;;;;;;;15.75;94.93;101959.41;5046820;28;20109;-69
2022/08/07 05:39:38;;;;;;;10.63;4.63;;;;;;;15.65;94.85;101962.66;5032396;28;20038;-69
2022/08/07 05:42:05;;;;;;;11.52;4.43;;;;;;;15.82;93.58;101964.97;5006565;28;20165;-68
2022/08/07 05:44:36;;;;;;;11.75;4.75;;;;;;;15.78;94.30;101961.38;5008843;28;20471;-68
2022/08/07 05:47:03;;;;;;;;;;;;;;;16.07;94.16;101969.75;5046473;28;20042;-68
2022/08/07 05:49:30;;;;;;;14.88;4.25;;;;;;;15.88;92.98;101961.63;5002587;28;19909;-69
2022/08/07 05:51:57;;;;;;;7.85;3.65;;;;;;;16.04;93.13;101951.44;5012686;28;20437;-68
2022/08/07 05:54:24;;;;;;;7.10;3.55;;;;;;;16.39;92.09;101955.97;5007956;28;20037;-69
2022/08/07 05:56:53;;;;;;;7.50;3.58;;;;;;;16.48;91.29;101951.06;5012846;28;20037;-69
2022/08/07 05:59:21;;;;;;;11.18;3.92;;;;;;;16.89;90.75;101952.94;5009515;28;20053;-69
2022/08/07 06:01:52;;;;;;;9.27;3.78;;;;;;;16.79;89.36;101948.91;5009288;28;20037;-69
2022/08/07 06:04:19;;;;;;;8.98;3.72;;;;;;;17.12;89.17;101956.41;5001458;28;20034;-69
2022/08/07 06:06:45;;;;;;;10.82;4.05;;;;;;;17.19;88.47;101953.78;5045545;28;20075;-68
2022/08/07 06:09:16;;;;;;;9.27;3.28;;;;;;;17.39;87.06;101955.25;5012857;28;20564;-69
2022/08/07 06:11:45;;;;;;;6.85;3.60;;;;;;;17.74;86.26;101950.28;5011060;28;20037;-70
2022/08/07 06:14:11;;;;;;;7.60;3.30;;;;;;;17.73;84.62;101953.38;5002600;28;20045;-70
2022/08/07 06:16:37;;;;;;;7.35;3.10;;;;;;;17.84;83.47;101959.75;5004208;28;20084;-70
2022/08/07 06:19:04;;;;;;;5.28;2.53;;;;;;;17.79;82.89;101952.66;5001690;28;20041;-71
2022/08/07 06:21:32;;;;;;;8.70;3.10;;;;;;;17.86;83.08;101954.69;4992959;28;20038;-70
2022/08/07 06:23:58;;;;;;;6.03;2.60;;;;;;;17.87;81.21;101956.25;5010055;28;20034;-70
2022/08/07 06:26:25;;;;;;;7.07;2.60;;;;;;;17.63;81.60;101956.75;5009477;28;20563;-70
2022/08/07 06:28:53;;;;;;;5.93;2.90;;;;;;;18.10;81.36;101958.88;5010501;28;20040;-70
2022/08/07 06:31:20;;;;;;;7.53;2.38;;;;;;;18.40;80.62;101952.16;5012390;28;20026;-70
2022/08/07 06:33:47;;;;;;;4.68;2.30;;;;;;;18.35;80.90;101957.94;5040102;28;20038;-70
2022/08/07 06:36:13;;;;;;;6.93;2.92;;;;;;;18.54;80.53;101962.44;5012418;28;20034;-70
2022/08/07 06:38:45;;;;;;;5.15;2.58;;;;;;;18.44;79.94;101949.50;4993502;28;20030;-70
2022/08/07 06:41:42;;;;;;;4.70;2.13;;;;;;;18.40;80.24;101959.56;5012166;28;20083;-70
2022/08/07 06:44:11;;;;;;;4.97;2.65;;;;;;;18.23;80.82;101965.63;4978124;28;20089;-70
2022/08/07 06:46:39;;;;;;;4.90;2.05;;;;;;;18.49;81.79;101954.59;5009165;28;20025;-70
2022/08/07 06:49:05;;;;;;;5.30;2.60;;;;;;;18.91;82.35;101963.16;5002086;28;20452;-70
2022/08/07 06:51:35;;;;;;;5.05;2.28;;;;;;;19.14;78.13;101966.44;5001122;28;20018;-70
2022/08/07 06:54:07;;;;;;;3.53;1.95;;;;;;;19.42;79.20;101957.63;5003172;28;20041;-70
2022/08/07 06:56:38;;;;;;;5.38;2.85;;;;;;;19.49;75.65;101963.91;5007178;28;20031;-70
2022/08/07 06:59:20;;;;;;;5.32;2.00;;;;;;;19.55;75.31;101965.13;4998915;28;20422;-70
2022/08/07 07:01:52;;;;;;;3.60;2.10;;;;;;;19.98;75.14;101970.75;5024479;28;20040;-70
2022/08/07 07:04:17;;;;;;;3.38;1.85;;;;;;;20.43;74.54;101968.16;5008449;28;20036;-70
2022/08/07 07:06:46;;;;;;;3.55;1.95;;;;;;;20.66;69.39;101973.25;5005241;28;20026;-70
2022/08/07 07:09:30;;;;;;;4.47;1.77;;;;;;;20.37;69.70;101972.47;5016958;28;20479;-69
2022/08/07 07:12:05;;;;;;;2.08;1.42;;;;;;;20.78;71.08;101972.88;5006724;28;20136;-68
2022/08/07 07:14:44;;;;;;;1.85;1.17;;;;;;;21.10;67.43;101972.88;5011923;28;20034;-68
2022/08/07 07:17:21;;;;;;;1.63;1.13;;;;;;;21.44;66.82;101973.97;5007555;28;20034;-68
2022/08/07 07:19:49;;;;;;;2.00;1.20;;;;;;;21.80;65.26;101980.09;5004595;28;20033;-69
2022/08/07 07:22:17;;;;;;;2.40;1.30;;;;;;;22.07;64.50;101972.94;5011249;28;20116;-68
2022/08/07 07:24:44;;;;;;;2.38;1.23;;;;;;;22.23;63.82;101971.28;5009860;28;20041;-68
2022/08/07 07:27:13;;;;;;;2.17;1.08;;;;;;;21.50;64.11;101972.41;5011243;28;20402;-68
2022/08/07 07:29:44;;;;;;;1.77;1.20;;;;;;;21.99;63.36;101968.69;5011700;28;20042;-68
2022/08/07 07:32:13;;;;;;;2.37;1.27;;;;;;;22.41;62.41;101982.91;4997562;28;20033;-68
2022/08/07 07:34:43;;;;;;;6.35;1.42;;;;;;;22.78;61.17;101979.56;5011854;28;20280;-68
2022/08/07 07:37:10;;;;;;;4.03;1.42;;;;;;;22.89;57.35;101972.00;5012361;28;20038;-68
2022/08/07 07:39:38;;;;;;;2.58;1.38;;;;;;;22.45;56.45;101971.94;5012244;28;20156;-68
2022/08/07 07:42:07;;;;;;;3.28;1.35;;;;;;;21.72;59.78;101973.09;5011798;28;20070;-67
2022/08/07 07:44:36;;;;;;;2.65;1.23;;;;;;;21.35;61.83;101971.63;5011864;28;20053;-68
2022/08/07 07:47:02;;;;;;;2.88;1.33;;;;;;;21.91;61.70;101969.91;4999734;28;20429;-68
2022/08/07 07:49:30;;;;;;;1.58;1.20;;;;;;;22.15;58.98;101963.50;5003861;28;20035;-67
2022/08/07 07:51:57;;;;;;;1.85;1.30;;;;;;;21.83;59.26;101962.88;5006998;28;20046;-68
2022/08/07 07:54:25;;;;;;;3.80;1.92;;;;;;;21.90;61.15;101960.88;5011417;28;20076;-68
2022/08/07 07:56:51;;;;;;;2.17;1.50;;;;;;;22.13;59.23;101961.16;5011334;28;20136;-68
2022/08/07 07:59:18;;;;;;;2.92;1.38;;;;;;;22.37;59.31;101970.41;5001548;28;20136;-68
2022/08/07 08:01:47;;;;;;;2.33;1.50;;;;;;;22.59;59.47;101960.09;5010071;28;20033;-68
2022/08/07 08:04:14;;;;;;;2.70;1.33;;;;;;;23.07;59.02;101967.09;5009644;28;20034;-68
2022/08/07 08:06:42;;;;;;;2.22;1.48;;;;;;;23.50;56.19;101961.94;5003860;28;20530;-68
2022/08/07 08:09:08;;;;;;;4.22;1.58;;;;;;;23.88;55.88;101966.19;4992229;28;20117;-68
2022/08/07 08:11:35;;;;;;;4.03;1.48;;;;;;;24.06;54.55;101947.47;5006887;28;20072;-68
2022/08/07 08:14:01;;;;;;;3.65;1.60;;;;;;;24.08;52.49;101949.81;5011698;28;20048;-68
2022/08/07 08:16:33;;;;;;;4.82;1.63;;;;;;;23.54;53.24;101945.41;5008291;28;20037;-68
2022/08/07 08:19:01;;;;;;;2.88;1.60;;;;;;;23.62;52.68;101955.13;5010766;28;20048;-68
2022/08/07 08:27:10;;;;;;;1.88;1.30;;;;;;;24.52;52.66;101940.50;5007069;28;20100;-68
2022/08/07 08:29:51;;;;;;;2.85;1.23;;;;;;;24.80;50.84;101946.31;5010203;28;20113;-68
2022/08/07 08:32:20;;;;;;;2.92;1.42;;;;;;;25.08;52.20;101939.53;4999985;28;20041;-69
2022/08/07 08:34:47;;;;;;;1.85;1.20;;;;;;;25.43;49.64;101951.88;5008249;28;20065;-69
2022/08/07 08:37:15;;;;;;;2.22;1.20;;;;;;;25.66;48.30;101943.53;4997491;28;20245;-70
2022/08/07 08:39:43;;;;;;;2.33;1.38;;;;;;;25.80;49.16;101952.25;4996921;28;20034;-69
2022/08/07 08:42:33;;;;;;;3.08;1.90;;;;;;;25.91;47.16;101946.53;5001024;28;20035;-69
2022/08/07 08:45:25;;;;;;;1.63;0.95;;;;;;;26.01;45.24;101950.25;5008307;28;20028;-69
2022/08/07 08:47:56;;;;;;;;;;;;;;;25.66;45.30;101958.09;5006994;28;20049;-69
2022/08/07 08:50:29;;;;;;;5.47;1.60;;;;;;;25.79;46.59;101939.69;4999931;28;19920;-69
2022/08/07 08:53:25;;;;;;;1.33;0.90;;;;;;;26.07;46.41;101946.59;4998676;28;20109;-68
2022/08/07 08:55:55;;;;;;;2.58;1.38;;;;;;;26.35;45.70;101945.13;4997396;28;20069;-69
2022/08/07 08:58:43;;;;;;;1.80;1.10;;;;;;;26.49;45.19;101944.78;5004302;28;20034;-69
2022/08/07 09:01:19;;;;;;;2.70;1.10;;;;;;;26.39;45.96;101938.31;5007146;28;20038;-69
2022/08/07 09:04:03;;;;;;;4.15;1.50;;;;;;;26.70;46.18;101950.59;5006149;28;20045;-69
2022/08/07 09:06:38;;;;;;;1.75;1.13;;;;;;;27.10;45.89;101948.34;5008264;28;20041;-68
2022/08/07 09:09:24;;;;;;;1.88;1.23;;;;;;;27.27;44.81;101944.34;5002596;28;20022;-69
2022/08/07 09:12:04;;;;;;;1.85;1.15;;;;;;;27.37;44.46;101942.53;5005197;28;20034;-69
2022/08/07 09:14:35;;;;;;;3.03;1.40;;;;;;;27.41;43.97;101935.66;5007453;28;20510;-69
2022/08/07 09:17:40;;;;;;;1.67;1.20;;;;;;;27.24;44.90;101941.66;5004575;28;20116;-69
2022/08/07 09:20:25;;;;;;;1.63;1.10;;;;;;;27.49;44.61;101936.22;5004026;28;20117;-69
2022/08/07 09:23:04;;;;;;;2.28;1.50;;;;;;;27.64;44.19;101929.81;5006855;28;20072;-69
2022/08/07 09:26:00;;;;;;;1.48;0.95;;;;;;;27.54;44.62;101928.16;5006936;28;20038;-69
2022/08/07 09:28:37;;;;;;;1.52;1.00;;;;;;;27.69;44.49;101931.28;5005730;28;20065;-69
2022/08/07 09:31:31;;;;;;;2.70;1.30;;;;;;;27.88;43.76;101927.53;5003379;28;20110;-69
2022/08/07 09:34:24;;;;;;;2.53;1.20;;;;;;;28.14;43.12;101929.13;5002846;28;20041;-69
2022/08/07 09:37:18;;;;;;;3.20;1.50;;;;;;;28.46;41.45;101928.06;4995627;28;20053;-69
2022/08/07 09:40:07;;;;;;;3.00;1.13;;;;;;;28.57;42.64;101924.97;4999697;28;20042;-69
2022/08/07 09:42:59;;;;;;;3.08;1.17;;;;;;;28.68;43.63;101920.63;4995236;28;20118;-69
2022/08/07 09:45:41;;;;;;;;;;;;;;;28.85;43.44;101926.75;5006673;28;20080;-69
2022/08/07 09:48:38;;;;;;;1.10;0.82;;;;;;;29.06;41.95;101920.47;5025561;28;20201;-69
2022/08/07 09:51:04;;;;;;;1.88;1.10;;;;;;;29.13;41.41;101923.78;5013831;28;20045;-69
2022/08/07 09:53:37;;;;;;;1.60;1.13;;;;;;;29.21;42.01;101919.53;5027760;28;20025;-69
2022/08/07 09:56:17;;;;;;;1.75;1.00;;;;;;;28.89;41.37;101910.78;5011097;28;20399;-69
2022/08/07 09:59:20;;;;;;;1.98;1.02;;;;;;;28.87;41.97;101908.44;5009857;28;20038;-70
2022/08/07 10:01:57;;;;;;;1.63;0.90;;;;;;;28.98;41.33;101906.06;5004697;28;20408;-70
2022/08/07 10:04:38;;;;;;;1.92;1.20;;;;;;;28.87;41.47;101905.66;5000844;28;20041;-71
2022/08/07 10:07:22;;;;;;;1.77;0.90;;;;;;;28.37;41.16;101905.78;5014272;28;20128;-71
2022/08/07 10:10:23;;;;;;;2.28;1.30;;;;;;;27.76;43.35;101908.16;4994209;28;20104;-70
2022/08/07 10:12:48;;;;;;;;;;;;;;;27.67;42.79;101900.47;5011058;28;20426;-71
2022/08/07 10:15:35;;;;;;;1.52;1.02;;;;;;;27.71;42.30;101897.59;5012625;28;19917;-70
2022/08/07 10:18:17;;;;;;;1.48;0.98;;;;;;;27.85;43.06;101895.19;5022244;28;20066;-70
2022/08/07 10:21:01;;;;;;;1.13;1.02;;;;;;;28.06;41.89;101890.97;5013333;28;20034;-70
2022/08/07 10:23:47;;;;;;;1.90;1.17;;;;;;;28.13;41.80;101883.22;5011782;28;20426;-70
2022/08/07 10:26:43;;;;;;;2.17;1.10;;;;;;;28.39;41.46;101884.72;5010760;28;20034;-71
2022/08/07 10:29:46;;;;;;;3.58;1.05;;;;;;;28.27;39.51;101888.28;4991806;28;20042;-70
2022/08/07 10:32:18;;;;;;;1.77;1.20;;;;;;;27.87;41.33;101873.34;5014785;28;20030;-70
2022/08/07 10:35:12;;;;;;;1.58;1.10;;;;;;;27.49;41.96;101880.84;5009936;28;20068;-69
2022/08/07 10:38:13;;;;;;;1.73;1.20;;;;;;;27.17;42.77;101876.22;5009353;28;20022;-69
2022/08/07 10:41:06;;;;;;;3.38;1.17;;;;;;;26.83;43.51;101869.69;5002640;28;20482;-69
2022/08/07 10:43:42;;;;;;;1.70;1.17;;;;;;;26.48;45.14;101868.63;4996445;28;20045;-70
2022/08/07 10:46:24;;;;;;;2.28;1.30;;;;;;;26.38;45.22;101866.91;5001310;28;20026;-70
2022/08/07 10:49:13;;;;;;;2.08;1.08;;;;;;;26.43;44.95;101858.84;5006161;28;20095;-71
2022/08/07 10:51:51;;;;;;;4.30;1.50;;;;;;;26.76;43.67;101859.59;4999341;28;20046;-69
2022/08/07 10:54:26;;;;;;;2.92;1.38;;;;;;;26.94;43.34;101857.13;5004349;28;20513;-69
2022/08/07 10:57:19;;;;;;;2.38;1.38;;;;;;;27.06;43.88;101858.38;5002355;28;20084;-72
2022/08/07 10:59:45;;;;;;;2.42;1.20;;;;;;;27.33;43.53;101853.28;5009503;28;20418;-70
2022/08/07 11:02:34;;;;;;;1.98;1.42;;;;;;;27.78;43.03;101848.28;5005822;28;20032;-69
2022/08/07 11:05:18;;;;;;;2.00;1.17;;;;;;;28.23;42.41;101851.59;5012154;28;20157;-71
2022/08/07 11:07:56;;;;;;;2.55;1.35;;;;;;;28.72;39.96;101834.50;5011531;28;20574;-69
2022/08/07 11:10:37;;;;;;;1.60;0.90;;;;;;;29.01;39.52;101841.34;5004917;28;20558;-70
2022/08/07 11:13:22;;;;;;;2.83;1.10;;;;;;;29.37;39.65;101838.78;5007332;28;20487;-70
2022/08/07 11:15:54;;;;;;;1.23;1.10;;;;;;;29.36;39.60;101839.25;5003867;28;20121;-71
2022/08/07 11:18:32;;;;;;;1.88;0.95;;;;;;;29.01;40.38;101833.00;5002703;28;20053;-69
2022/08/07 11:21:09;;;;;;;1.52;0.98;;;;;;;28.59;41.07;101839.31;5010232;28;20034;-70
2022/08/07 11:23:58;;;;;;;2.50;1.00;;;;;;;28.18;41.45;101827.22;5005063;28;20038;-71
2022/08/07 11:26:47;;;;;;;2.30;1.25;;;;;;;28.02;40.35;101834.91;5009764;28;20099;-69
2022/08/07 11:29:25;;;;;;;1.73;1.00;;;;;;;27.74;41.31;101836.53;5011241;28;20049;-70
2022/08/07 11:32:09;;;;;;;3.30;1.10;;;;;;;27.89;41.20;101825.81;4996904;28;20576;-70
2022/08/07 11:34:46;;;;;;;2.10;1.13;;;;;;;28.19;41.06;101828.75;5005034;28;20038;-70
2022/08/07 11:37:40;;;;;;;1.55;1.20;;;;;;;28.66;40.68;101828.75;4998255;28;20088;-70
2022/08/07 11:40:19;;;;;;;1.45;1.00;;;;;;;29.01;40.44;101824.69;4989033;28;20069;-69
2022/08/07 11:43:03;;;;;;;3.03;1.30;;;;;;;29.38;39.65;101828.47;5006123;28;20315;-71
2022/08/07 11:45:49;;;;;;;1.40;1.10;;;;;;;29.56;38.83;101827.78;4998172;28;20390;-70
2022/08/07 11:48:26;;;;;;;2.03;1.17;;;;;;;29.70;38.32;101824.41;5000352;28;20030;-71
2022/08/07 11:51:35;;;;;;;3.33;1.10;;;;;;;29.95;36.96;101822.19;5003119;28;20092;-70
2022/08/07 11:54:15;;;;;;;2.30;1.30;;;;;;;30.24;37.59;101824.56;5102749;27;20860;-72
2022/08/07 11:56:59;;;;;;;2.10;1.00;;;;;;;30.33;37.07;101818.28;5103030;28;20047;-71
2022/08/07 11:59:43;;;;;;;2.70;1.15;;;;;;;30.40;37.93;101813.19;5102579;28;20396;-71